Time;durP1;ratioP1;P1;durP2;ratioP2;P2;SDS_P1;SDS_P2;PMS_P1;PMS_P2;Temp;Humidity;BMP_temperature;BMP_pressure;BME280_temperature;BME280_humidity;BME280_pressure;Samples;Min_cycle;Max_cycle;Signal;HPM_P1;HPM_P2
2022/08/03 00:00:59;;;;;;;1.02;1.02;;;22.50;99.90;;;;;;5085881;28;20193;-76
2022/08/03 00:03:27;;;;;;;1.10;1.10;;;22.50;99.90;;;;;;5086359;28;20229;-75
2022/08/03 00:05:54;;;;;;;1.08;1.08;;;22.60;99.90;;;;;;5080342;28;20205;-75
2022/08/03 00:08:22;;;;;;;0.90;0.90;;;22.60;99.90;;;;;;5085385;28;20220;-75
2022/08/03 00:10:49;;;;;;;1.33;0.90;;;22.50;99.90;;;;;;5086671;28;20193;-74
2022/08/03 00:13:18;;;;;;;1.00;1.00;;;22.50;99.90;;;;;;5088977;28;20224;-74
2022/08/03 00:15:45;;;;;;;1.00;1.00;;;22.40;99.90;;;;;;5082057;28;20323;-75
2022/08/03 00:18:12;;;;;;;1.05;1.05;;;22.40;99.90;;;;;;5084394;28;20230;-74
2022/08/03 00:20:39;;;;;;;0.75;0.75;;;22.40;99.90;;;;;;5078713;28;20202;-74
2022/08/03 00:23:06;;;;;;;1.08;0.93;;;22.30;99.90;;;;;;5084968;28;20209;-75
2022/08/03 00:25:36;;;;;;;0.82;0.82;;;22.30;99.90;;;;;;5083036;28;20194;-74
2022/08/03 00:28:05;;;;;;;1.00;1.00;;;22.20;99.90;;;;;;5088417;28;20221;-75
2022/08/03 00:30:32;;;;;;;1.23;1.20;;;22.10;99.90;;;;;;5084074;28;20552;-74
2022/08/03 00:32:59;;;;;;;1.08;1.08;;;22.10;99.90;;;;;;5084599;28;20647;-74
2022/08/03 00:35:27;;;;;;;1.17;1.10;;;22.10;99.90;;;;;;5084580;28;20210;-75
2022/08/03 00:37:54;;;;;;;1.13;1.10;;;22.10;99.90;;;;;;5086932;28;20704;-75
2022/08/03 00:40:21;;;;;;;1.02;1.02;;;22.10;99.90;;;;;;5087317;28;20257;-76
2022/08/03 00:42:52;;;;;;;1.35;1.25;;;22.10;99.90;;;;;;5081132;28;20217;-75
2022/08/03 00:45:21;;;;;;;1.20;1.05;;;22.10;99.90;;;;;;5082945;28;20193;-75
2022/08/03 00:47:48;;;;;;;1.45;1.00;;;22.10;99.90;;;;;;5078708;28;20221;-76
2022/08/03 00:50:17;;;;;;;1.10;1.10;;;22.10;99.90;;;;;;5083093;28;20682;-75
2022/08/03 00:52:45;;;;;;;1.52;1.42;;;22.10;99.90;;;;;;5089090;28;20722;-75
2022/08/03 00:55:13;;;;;;;0.82;0.82;;;22.10;99.90;;;;;;5080639;28;20186;-76
2022/08/03 00:57:40;;;;;;;1.00;1.00;;;22.10;99.90;;;;;;5088551;28;20225;-76
2022/08/03 01:00:10;;;;;;;0.93;0.93;;;22.00;99.90;;;;;;5078993;28;20663;-75
2022/08/03 01:02:38;;;;;;;1.27;1.02;;;22.00;99.90;;;;;;5088360;28;20224;-75
2022/08/03 01:05:06;;;;;;;1.00;1.00;;;22.10;99.90;;;;;;5083250;28;20206;-75
2022/08/03 01:07:46;;;;;;;1.20;1.20;;;22.10;99.90;;;;;;5087663;28;20218;-74
2022/08/03 01:10:21;;;;;;;1.20;1.10;;;22.10;99.90;;;;;;5083700;28;20205;-74
2022/08/03 01:12:56;;;;;;;0.82;0.82;;;22.10;99.90;;;;;;5083940;28;20217;-75
2022/08/03 01:15:34;;;;;;;1.13;1.13;;;22.00;99.90;;;;;;5084207;28;20197;-74
2022/08/03 01:18:09;;;;;;;1.10;1.10;;;21.90;99.90;;;;;;5077772;28;20854;-75
2022/08/03 01:20:40;;;;;;;1.20;1.10;;;21.90;99.90;;;;;;5082047;28;20232;-75
2022/08/03 01:23:31;;;;;;;1.10;1.10;;;21.90;99.90;;;;;;5086550;28;20217;-75
2022/08/03 01:26:22;;;;;;;1.20;1.20;;;21.80;99.90;;;;;;5086983;28;20258;-75
2022/08/03 01:29:04;;;;;;;1.10;1.10;;;21.80;99.90;;;;;;5086531;28;20711;-75
2022/08/03 01:31:40;;;;;;;1.10;1.00;;;21.70;99.90;;;;;;5084157;28;20193;-75
2022/08/03 01:34:10;;;;;;;1.25;1.25;;;21.70;99.90;;;;;;5087904;28;20794;-75
2022/08/03 01:36:42;;;;;;;1.40;1.30;;;21.70;99.90;;;;;;5092947;28;20229;-75
2022/08/03 01:39:10;;;;;;;1.10;1.00;;;21.70;99.90;;;;;;5084523;28;20213;-75
2022/08/03 01:41:44;;;;;;;0.90;0.90;;;21.70;99.90;;;;;;5091404;28;20209;-75
2022/08/03 01:44:13;;;;;;;1.40;1.30;;;21.70;99.90;;;;;;5087751;28;20230;-75
2022/08/03 01:46:42;;;;;;;1.10;1.10;;;21.60;99.90;;;;;;5091987;28;20598;-76
2022/08/03 01:49:13;;;;;;;1.10;1.10;;;21.60;99.90;;;;;;5088091;28;21339;-75
2022/08/03 01:51:42;;;;;;;1.15;1.15;;;21.60;99.90;;;;;;5086864;28;20572;-75
2022/08/03 01:54:11;;;;;;;0.95;0.95;;;21.60;99.90;;;;;;5085862;28;20218;-75
2022/08/03 01:56:40;;;;;;;1.30;1.20;;;21.60;99.90;;;;;;5087889;28;20738;-75
2022/08/03 01:59:08;;;;;;;1.25;1.00;;;21.60;99.90;;;;;;5079948;28;20214;-75
2022/08/03 02:01:37;;;;;;;1.15;1.05;;;21.50;99.90;;;;;;5086476;28;20660;-75
2022/08/03 02:04:07;;;;;;;1.27;1.20;;;21.50;99.90;;;;;;5089734;28;20259;-75
2022/08/03 02:06:35;;;;;;;1.60;1.42;;;21.50;99.90;;;;;;5090848;28;20578;-75
2022/08/03 02:09:03;;;;;;;1.20;1.20;;;21.50;99.90;;;;;;5086348;28;20217;-75
2022/08/03 02:11:32;;;;;;;1.13;1.05;;;21.50;99.90;;;;;;5088930;28;20883;-75
2022/08/03 02:14:02;;;;;;;1.33;1.23;;;21.50;99.90;;;;;;5081927;28;20210;-76
2022/08/03 02:16:32;;;;;;;1.23;1.15;;;21.50;99.90;;;;;;5087442;28;20325;-75
2022/08/03 02:19:01;;;;;;;1.70;1.50;;;21.40;99.90;;;;;;5085326;28;20699;-75
2022/08/03 02:21:33;;;;;;;1.30;1.20;;;21.40;99.90;;;;;;5086385;28;20250;-75
2022/08/03 02:24:00;;;;;;;1.10;1.10;;;21.40;99.90;;;;;;5084891;28;20248;-75
2022/08/03 02:26:29;;;;;;;1.00;1.00;;;21.40;99.90;;;;;;5089396;28;20228;-75
2022/08/03 02:29:02;;;;;;;1.08;1.00;;;21.30;99.90;;;;;;5085978;28;20595;-75
2022/08/03 02:31:33;;;;;;;1.10;1.00;;;21.30;99.90;;;;;;5089798;28;20560;-75
2022/08/03 02:34:04;;;;;;;1.10;1.10;;;21.30;99.90;;;;;;5080060;28;20210;-75
2022/08/03 02:36:38;;;;;;;1.45;1.33;;;21.30;99.90;;;;;;5089575;28;20714;-75
2022/08/03 02:39:06;;;;;;;1.23;1.15;;;21.30;99.90;;;;;;5086935;28;20214;-75
2022/08/03 02:41:37;;;;;;;1.00;1.00;;;21.20;99.90;;;;;;5099224;28;20202;-75
2022/08/03 02:44:09;;;;;;;1.05;1.05;;;21.20;99.90;;;;;;5087979;28;20213;-75
2022/08/03 02:46:39;;;;;;;1.30;1.20;;;21.20;99.90;;;;;;5088245;28;20217;-75
2022/08/03 02:49:08;;;;;;;1.77;1.10;;;21.10;99.90;;;;;;5089030;28;20222;-75
2022/08/03 02:51:39;;;;;;;1.00;1.00;;;21.10;99.90;;;;;;5087468;28;20194;-74
2022/08/03 02:54:08;;;;;;;1.00;1.00;;;21.10;99.90;;;;;;5088389;28;20222;-75
2022/08/03 02:56:36;;;;;;;1.20;1.20;;;21.10;99.90;;;;;;5094411;28;20626;-75
2022/08/03 02:59:04;;;;;;;1.90;1.10;;;21.00;99.90;;;;;;5096281;28;20217;-75
2022/08/03 03:01:32;;;;;;;1.33;1.23;;;21.00;99.90;;;;;;5081572;28;20652;-75
2022/08/03 03:04:00;;;;;;;1.20;1.20;;;21.00;99.90;;;;;;5085924;28;20560;-75
2022/08/03 03:06:28;;;;;;;1.10;1.10;;;21.00;99.90;;;;;;5088612;28;20213;-75
2022/08/03 03:08:58;;;;;;;1.30;1.20;;;21.00;99.90;;;;;;5082662;28;20627;-73
2022/08/03 03:11:26;;;;;;;1.35;1.27;;;20.90;99.90;;;;;;5085712;28;20194;-75
2022/08/03 03:13:56;;;;;;;1.35;1.25;;;20.90;99.90;;;;;;5082909;28;20597;-75
2022/08/03 03:16:25;;;;;;;1.33;1.23;;;20.80;99.90;;;;;;5089840;28;20715;-73
2022/08/03 03:18:54;;;;;;;1.30;1.20;;;20.80;99.90;;;;;;5083362;28;20703;-74
2022/08/03 03:21:23;;;;;;;1.23;1.13;;;20.80;99.90;;;;;;5083090;28;20679;-75
2022/08/03 03:23:52;;;;;;;1.00;1.00;;;20.80;99.90;;;;;;5079939;28;20217;-75
2022/08/03 03:26:21;;;;;;;1.13;1.05;;;20.80;99.90;;;;;;5090864;28;20228;-75
2022/08/03 03:28:48;;;;;;;1.30;1.20;;;20.80;99.90;;;;;;5087949;28;20749;-75
2022/08/03 03:31:15;;;;;;;1.10;1.10;;;20.70;99.90;;;;;;5084497;28;20209;-75
2022/08/03 03:33:43;;;;;;;1.00;1.00;;;20.70;99.90;;;;;;5085988;28;20220;-75
2022/08/03 03:36:10;;;;;;;1.30;1.20;;;20.70;99.90;;;;;;5087574;28;20221;-75
2022/08/03 03:38:37;;;;;;;1.02;1.02;;;20.70;99.90;;;;;;5081805;28;20224;-75
2022/08/03 03:41:05;;;;;;;1.30;1.20;;;20.70;99.90;;;;;;5083014;28;20714;-74
2022/08/03 03:43:34;;;;;;;1.42;1.33;;;20.70;99.90;;;;;;5089559;28;20209;-74
2022/08/03 03:46:01;;;;;;;1.30;1.30;;;20.60;99.90;;;;;;5083414;28;20259;-75
2022/08/03 03:48:28;;;;;;;1.30;1.20;;;20.50;99.90;;;;;;5089619;28;20213;-75
2022/08/03 03:50:56;;;;;;;0.95;0.95;;;20.50;99.90;;;;;;5083091;28;20207;-75
2022/08/03 03:53:24;;;;;;;1.20;1.20;;;20.60;99.90;;;;;;5082335;28;20226;-75
2022/08/03 03:55:52;;;;;;;1.33;1.30;;;20.60;99.90;;;;;;5078202;28;20190;-75
2022/08/03 03:58:20;;;;;;;1.10;1.10;;;20.60;99.90;;;;;;5084261;28;20217;-74
2022/08/03 04:00:49;;;;;;;1.20;1.20;;;20.60;99.90;;;;;;5088645;28;20221;-74
2022/08/03 04:03:16;;;;;;;1.25;1.10;;;20.60;99.90;;;;;;5084936;28;20712;-74
2022/08/03 04:11:17;;;;;;;1.15;1.10;;;20.60;99.90;;;;;;5085359;28;20301;-75
2022/08/03 04:13:50;;;;;;;1.52;1.42;;;20.60;99.90;;;;;;5082010;28;20214;-75
2022/08/03 04:16:21;;;;;;;1.08;1.05;;;20.60;99.90;;;;;;5084206;28;20221;-76
2022/08/03 04:18:55;;;;;;;1.10;1.10;;;20.60;99.90;;;;;;5085406;28;20233;-75
2022/08/03 04:21:24;;;;;;;1.55;1.45;;;20.60;99.90;;;;;;5081988;28;20675;-75
2022/08/03 04:23:55;;;;;;;1.20;1.20;;;20.50;99.90;;;;;;5083895;28;20228;-75
2022/08/03 04:26:24;;;;;;;1.60;1.50;;;20.50;99.90;;;;;;5079536;28;20237;-75
2022/08/03 04:28:53;;;;;;;1.27;1.23;;;20.50;99.90;;;;;;5106721;22;20288;-78
2022/08/03 04:31:23;;;;;;;1.55;1.45;;;20.50;99.90;;;;;;5089564;28;20194;-76
2022/08/03 04:33:52;;;;;;;1.10;1.10;;;20.50;99.90;;;;;;5085181;28;20228;-78
2022/08/03 04:36:22;;;;;;;1.20;1.20;;;20.40;99.90;;;;;;5089477;28;20539;-78
2022/08/03 04:38:57;;;;;;;1.10;1.10;;;20.50;99.90;;;;;;5089264;28;20213;-78
2022/08/03 04:41:26;;;;;;;1.20;1.20;;;20.60;99.90;;;;;;5091847;28;20196;-78
2022/08/03 04:43:56;;;;;;;1.17;1.10;;;20.60;99.90;;;;;;5090481;28;20300;-78
2022/08/03 04:46:27;;;;;;;1.05;1.05;;;20.80;99.90;;;;;;5090766;28;20579;-77
2022/08/03 04:48:57;;;;;;;1.17;1.17;;;21.00;99.90;;;;;;5087125;28;20256;-77
2022/08/03 04:51:24;;;;;;;1.10;1.10;;;21.10;99.90;;;;;;5084859;28;20204;-78
2022/08/03 04:53:51;;;;;;;1.00;1.00;;;21.20;99.90;;;;;;5089761;28;20563;-78
2022/08/03 04:56:18;;;;;;;1.98;1.00;;;21.30;99.90;;;;;;5090927;28;20196;-77
2022/08/03 04:58:45;;;;;;;1.40;1.30;;;21.40;99.90;;;;;;5091576;28;20805;-77
2022/08/03 05:01:13;;;;;;;1.50;1.40;;;21.60;99.90;;;;;;5095279;28;20235;-78
2022/08/03 05:03:41;;;;;;;1.10;1.10;;;21.70;99.90;;;;;;5094597;28;20589;-77
2022/08/03 05:06:08;;;;;;;3.13;1.45;;;21.70;99.90;;;;;;5094479;28;20714;-78
2022/08/03 05:08:36;;;;;;;1.58;1.20;;;21.80;99.90;;;;;;5087932;28;20308;-78
2022/08/03 05:11:03;;;;;;;1.30;1.20;;;21.90;99.90;;;;;;5093093;28;20189;-77
2022/08/03 05:13:30;;;;;;;1.42;1.20;;;22.10;99.90;;;;;;5094962;28;20217;-78
2022/08/03 05:15:57;;;;;;;1.10;1.10;;;22.20;99.90;;;;;;5095226;28;20186;-78
2022/08/03 05:18:24;;;;;;;1.45;1.35;;;22.40;99.90;;;;;;5091855;28;20221;-78
2022/08/03 05:20:53;;;;;;;1.30;1.20;;;22.50;99.90;;;;;;5087615;28;20205;-77
2022/08/03 05:23:20;;;;;;;1.40;1.30;;;22.50;99.90;;;;;;5093405;28;20213;-77
2022/08/03 05:25:47;;;;;;;1.45;1.35;;;22.50;99.90;;;;;;5091412;28;20591;-78
2022/08/03 05:28:14;;;;;;;1.40;1.30;;;22.50;99.90;;;;;;5093907;28;20217;-77
2022/08/03 05:30:41;;;;;;;2.97;1.50;;;22.60;99.90;;;;;;5093025;28;20194;-78
2022/08/03 05:33:08;;;;;;;1.45;1.27;;;22.60;99.90;;;;;;5092283;28;20224;-76
2022/08/03 05:35:38;;;;;;;1.63;1.52;;;22.70;99.90;;;;;;5094040;28;20201;-78
2022/08/03 05:38:06;;;;;;;1.60;1.40;;;22.80;99.90;;;;;;5092031;28;20231;-77
2022/08/03 05:40:33;;;;;;;1.60;1.50;;;23.00;99.90;;;;;;5094356;28;20197;-77
2022/08/03 05:43:01;;;;;;;1.50;1.40;;;23.10;99.90;;;;;;5086029;28;20738;-77
2022/08/03 05:45:28;;;;;;;3.05;1.73;;;23.20;99.90;;;;;;5092331;28;20695;-77
2022/08/03 05:47:56;;;;;;;1.83;1.40;;;23.20;99.90;;;;;;5089309;28;20234;-77
2022/08/03 05:50:23;;;;;;;2.15;1.63;;;23.20;99.90;;;;;;5092773;28;20197;-77
2022/08/03 05:52:50;;;;;;;1.60;1.50;;;23.20;99.90;;;;;;5092622;28;20564;-78
2022/08/03 05:55:18;;;;;;;1.63;1.52;;;23.40;99.90;;;;;;5092642;28;20672;-78
2022/08/03 05:57:47;;;;;;;2.15;1.73;;;23.40;99.90;;;;;;5093685;28;20419;-78
2022/08/03 06:00:14;;;;;;;3.67;1.60;;;23.50;99.90;;;;;;5090284;28;20197;-77
2022/08/03 06:02:43;;;;;;;2.22;1.80;;;23.60;99.90;;;;;;5092293;28;20229;-78
2022/08/03 06:05:10;;;;;;;1.60;1.50;;;23.80;99.90;;;;;;5094135;28;20214;-77
2022/08/03 06:07:37;;;;;;;1.90;1.40;;;23.80;99.90;;;;;;5092857;28;20278;-77
2022/08/03 06:10:05;;;;;;;2.45;1.40;;;23.90;99.90;;;;;;5094069;28;20280;-77
2022/08/03 06:12:35;;;;;;;1.50;1.40;;;23.90;99.90;;;;;;5094077;28;20221;-76
2022/08/03 06:15:03;;;;;;;1.50;1.40;;;24.00;99.90;;;;;;5093997;28;20197;-78
2022/08/03 06:17:30;;;;;;;2.78;1.63;;;24.00;99.90;;;;;;5093424;28;20241;-77
2022/08/03 06:19:57;;;;;;;1.70;1.60;;;24.00;99.90;;;;;;5088074;28;20193;-77
2022/08/03 06:22:24;;;;;;;1.90;1.80;;;24.00;99.90;;;;;;5093115;28;20232;-77
2022/08/03 06:24:52;;;;;;;2.58;1.88;;;24.00;99.90;;;;;;5093231;28;20304;-77
2022/08/03 06:27:19;;;;;;;2.53;1.90;;;24.10;99.90;;;;;;5093788;28;20606;-77
2022/08/03 06:29:47;;;;;;;3.05;1.77;;;24.10;99.90;;;;;;5092613;28;20197;-77
2022/08/03 06:32:15;;;;;;;1.88;1.73;;;24.10;99.90;;;;;;5092399;28;20229;-77
2022/08/03 06:34:42;;;;;;;1.90;1.80;;;24.20;99.90;;;;;;5092912;28;20197;-78
2022/08/03 06:37:10;;;;;;;3.17;1.77;;;24.20;99.90;;;;;;5092248;28;20712;-77
2022/08/03 06:39:37;;;;;;;1.80;1.70;;;24.20;99.90;;;;;;5094009;28;20201;-79
2022/08/03 06:42:05;;;;;;;3.20;1.92;;;24.20;99.90;;;;;;5094503;28;20217;-77
2022/08/03 06:44:32;;;;;;;1.75;1.65;;;24.20;99.90;;;;;;5093400;28;20674;-78
2022/08/03 06:47:00;;;;;;;1.90;1.80;;;24.30;99.90;;;;;;5091121;28;20208;-77
2022/08/03 06:49:27;;;;;;;1.88;1.77;;;24.40;99.90;;;;;;5093052;28;20216;-77
2022/08/03 06:51:55;;;;;;;2.00;1.63;;;24.40;99.90;;;;;;5092709;28;20197;-77
2022/08/03 06:54:23;;;;;;;4.40;2.17;;;24.50;99.90;;;;;;5093012;28;20250;-77
2022/08/03 06:56:50;;;;;;;1.90;1.73;;;24.60;99.90;;;;;;5091871;28;20194;-77
2022/08/03 06:59:17;;;;;;;2.20;2.10;;;24.60;99.90;;;;;;5092545;28;20205;-76
2022/08/03 07:01:45;;;;;;;3.05;1.80;;;24.70;99.90;;;;;;5094251;28;20198;-77
2022/08/03 07:04:13;;;;;;;1.85;1.75;;;24.70;99.90;;;;;;5092367;28;20197;-79
2022/08/03 07:06:40;;;;;;;3.42;1.90;;;24.80;99.90;;;;;;5093032;28;20236;-77
2022/08/03 07:09:07;;;;;;;1.75;1.65;;;24.80;99.90;;;;;;5091436;28;20225;-77
2022/08/03 07:11:34;;;;;;;1.98;1.73;;;24.90;99.90;;;;;;5091005;28;20200;-79
2022/08/03 07:14:01;;;;;;;1.95;1.85;;;25.00;99.90;;;;;;5092627;28;20213;-77
2022/08/03 07:16:28;;;;;;;2.08;1.98;;;25.10;99.90;;;;;;5090344;28;20198;-77
2022/08/03 07:18:55;;;;;;;1.88;1.73;;;25.10;99.90;;;;;;5088963;28;20237;-76
2022/08/03 07:21:24;;;;;;;2.70;2.08;;;25.10;99.90;;;;;;5088628;28;20202;-77
2022/08/03 07:23:51;;;;;;;1.80;1.70;;;25.20;99.90;;;;;;5090050;28;20220;-78
2022/08/03 07:26:18;;;;;;;4.53;1.83;;;25.40;99.90;;;;;;5091917;28;20564;-77
2022/08/03 07:28:45;;;;;;;1.83;1.73;;;25.60;99.90;;;;;;5088704;28;20233;-77
2022/08/03 07:31:12;;;;;;;2.20;2.00;;;25.70;99.90;;;;;;5088469;28;20213;-77
2022/08/03 07:33:39;;;;;;;1.95;1.85;;;25.60;99.90;;;;;;5090768;28;20726;-78
2022/08/03 07:36:06;;;;;;;2.15;1.95;;;25.70;99.90;;;;;;5084409;28;20194;-77
2022/08/03 07:38:36;;;;;;;3.40;1.85;;;25.70;99.90;;;;;;5087293;28;20241;-78
2022/08/03 07:41:04;;;;;;;2.10;1.88;;;25.70;99.90;;;;;;5091398;28;20353;-76
2022/08/03 07:43:31;;;;;;;2.15;2.05;;;25.80;99.90;;;;;;5088784;28;20251;-77
2022/08/03 07:45:58;;;;;;;2.10;2.00;;;25.80;99.90;;;;;;5091442;28;20221;-77
2022/08/03 07:48:25;;;;;;;2.05;1.85;;;25.90;99.90;;;;;;5090420;28;20609;-77
2022/08/03 07:50:52;;;;;;;2.17;1.98;;;26.00;99.90;;;;;;5085153;28;20200;-77
2022/08/03 07:53:19;;;;;;;2.15;1.77;;;26.10;99.90;;;;;;5091123;28;20221;-78
2022/08/03 07:55:48;;;;;;;2.13;2.03;;;26.20;99.90;;;;;;5086821;28;20679;-74
2022/08/03 07:58:16;;;;;;;2.58;2.08;;;26.20;99.90;;;;;;5091351;28;20217;-76
2022/08/03 08:00:44;;;;;;;1.90;1.80;;;26.40;99.90;;;;;;5084333;28;20202;-75
2022/08/03 08:03:12;;;;;;;2.10;2.00;;;26.40;99.90;;;;;;5091214;28;20222;-76
2022/08/03 08:05:39;;;;;;;1.80;1.70;;;26.50;99.90;;;;;;5091591;28;20300;-75
2022/08/03 08:08:07;;;;;;;2.17;2.00;;;26.60;99.90;;;;;;5087939;28;20232;-75
2022/08/03 08:10:35;;;;;;;1.80;1.70;;;26.70;99.90;;;;;;5089916;28;20189;-75
2022/08/03 08:13:04;;;;;;;1.77;1.67;;;26.80;99.90;;;;;;5090444;28;20213;-75
2022/08/03 08:15:31;;;;;;;2.13;1.85;;;26.90;99.90;;;;;;5090200;28;20671;-76
2022/08/03 08:18:00;;;;;;;1.77;1.60;;;26.90;99.90;;;;;;5089867;28;20221;-75
2022/08/03 08:20:29;;;;;;;2.08;1.90;;;26.90;99.90;;;;;;5088014;28;20307;-75
2022/08/03 08:22:58;;;;;;;2.28;2.10;;;27.00;99.90;;;;;;5091164;28;20217;-74
2022/08/03 08:25:25;;;;;;;2.30;2.10;;;27.00;99.90;;;;;;5087272;28;20691;-76
2022/08/03 08:27:52;;;;;;;3.10;1.90;;;27.00;99.90;;;;;;5085360;28;20229;-75
2022/08/03 08:30:23;;;;;;;2.20;2.00;;;27.10;99.90;;;;;;5089653;28;20613;-74
2022/08/03 08:32:50;;;;;;;2.00;1.90;;;27.30;99.90;;;;;;5089744;28;20214;-75
2022/08/03 08:35:18;;;;;;;2.00;1.80;;;27.40;99.90;;;;;;5087224;28;20574;-75
2022/08/03 08:37:46;;;;;;;4.40;2.20;;;27.50;99.90;;;;;;5088024;28;20230;-76
2022/08/03 08:40:13;;;;;;;2.78;2.42;;;27.60;99.90;;;;;;5090031;28;20190;-75
2022/08/03 08:42:42;;;;;;;2.95;2.13;;;27.60;99.90;;;;;;5091114;28;20243;-75
2022/08/03 08:45:10;;;;;;;2.08;1.98;;;27.60;99.90;;;;;;5090713;28;20272;-74
2022/08/03 08:47:41;;;;;;;2.25;2.05;;;27.80;99.90;;;;;;5089606;28;20943;-75
2022/08/03 08:50:09;;;;;;;1.80;1.70;;;27.90;99.90;;;;;;5083743;28;20197;-74
2022/08/03 08:52:40;;;;;;;2.25;2.05;;;28.00;99.90;;;;;;5087510;28;20307;-75
2022/08/03 08:55:10;;;;;;;2.22;2.10;;;28.20;99.90;;;;;;5091114;28;20255;-75
2022/08/03 08:57:40;;;;;;;4.15;2.00;;;28.20;99.90;;;;;;5087982;28;20225;-76
2022/08/03 09:00:12;;;;;;;2.10;2.00;;;28.20;99.90;;;;;;5088379;28;20193;-77
2022/08/03 09:02:42;;;;;;;1.90;1.80;;;28.10;99.90;;;;;;5084602;28;20726;-75
2022/08/03 09:05:12;;;;;;;2.08;1.98;;;28.30;99.90;;;;;;5087825;28;20232;-75
2022/08/03 09:07:39;;;;;;;1.85;1.75;;;28.40;99.90;;;;;;5087476;28;20217;-78
2022/08/03 09:10:08;;;;;;;1.92;1.83;;;28.40;99.90;;;;;;5089798;28;20591;-75
2022/08/03 09:12:39;;;;;;;2.10;2.00;;;28.50;99.90;;;;;;5089719;28;20263;-75
2022/08/03 09:15:20;;;;;;;1.92;1.83;;;28.50;99.90;;;;;;5088133;28;20481;-75
2022/08/03 09:17:49;;;;;;;1.67;1.58;;;28.40;99.90;;;;;;5089497;28;20220;-75
2022/08/03 09:20:16;;;;;;;2.00;1.90;;;28.50;99.90;;;;;;5087907;28;20194;-74
2022/08/03 09:22:55;;;;;;;2.60;1.77;;;28.80;99.90;;;;;;5089785;28;20224;-74
2022/08/03 09:25:28;;;;;;;1.77;1.67;;;28.90;99.90;;;;;;5086053;28;20201;-75
2022/08/03 09:28:03;;;;;;;1.85;1.75;;;28.90;99.90;;;;;;5092086;28;20229;-75
2022/08/03 09:30:30;;;;;;;2.05;1.90;;;28.90;99.90;;;;;;5091685;28;20186;-74
2022/08/03 09:33:02;;;;;;;1.90;1.80;;;29.00;99.90;;;;;;5084872;28;20219;-75
2022/08/03 09:35:30;;;;;;;1.80;1.70;;;29.10;99.90;;;;;;5089057;28;20660;-74
2022/08/03 09:38:13;;;;;;;2.50;1.50;;;29.30;99.90;;;;;;5090197;28;20222;-77
2022/08/03 09:40:41;;;;;;;2.05;1.80;;;29.30;99.90;;;;;;5084593;28;20201;-75
2022/08/03 09:43:08;;;;;;;1.92;1.70;;;29.40;99.90;;;;;;5093899;28;20224;-78
2022/08/03 09:45:35;;;;;;;1.80;1.70;;;29.40;99.90;;;;;;5091488;28;20599;-75
2022/08/03 09:48:24;;;;;;;1.90;1.75;;;29.50;99.90;;;;;;5091572;28;20240;-75
2022/08/03 09:50:52;;;;;;;1.70;1.60;;;29.50;99.90;;;;;;5090786;28;20621;-76
2022/08/03 09:53:20;;;;;;;1.83;1.67;;;29.50;99.90;;;;;;5093059;28;20224;-74
2022/08/03 09:55:55;;;;;;;2.17;1.98;;;29.80;99.90;;;;;;5092349;28;20294;-74
2022/08/03 09:58:23;;;;;;;1.98;1.63;;;30.00;99.90;;;;;;5089886;28;20278;-75
2022/08/03 10:00:55;;;;;;;1.80;1.70;;;29.70;99.90;;;;;;5094685;28;20251;-75
2022/08/03 10:03:24;;;;;;;1.63;1.52;;;29.70;99.90;;;;;;5090457;28;20690;-75
2022/08/03 10:05:51;;;;;;;1.88;1.77;;;29.90;99.90;;;;;;5091439;28;20249;-74
2022/08/03 10:08:19;;;;;;;1.60;1.50;;;30.10;99.90;;;;;;5089541;28;20221;-77
2022/08/03 10:10:49;;;;;;;1.75;1.65;;;30.00;99.90;;;;;;5096116;28;20201;-75
2022/08/03 10:13:18;;;;;;;1.80;1.70;;;30.00;99.90;;;;;;5089600;28;20213;-75
2022/08/03 10:15:46;;;;;;;1.85;1.75;;;30.10;99.90;;;;;;5089362;28;20198;-75
2022/08/03 10:18:13;;;;;;;1.80;1.70;;;30.20;99.90;;;;;;5092167;28;20217;-74
2022/08/03 10:20:49;;;;;;;1.70;1.60;;;30.20;99.90;;;;;;5094392;28;20197;-75
2022/08/03 10:23:18;;;;;;;1.92;1.83;;;30.20;99.90;;;;;;5091846;28;20233;-76
2022/08/03 10:25:48;;;;;;;2.03;1.92;;;30.20;99.90;;;;;;5098122;28;20285;-75
2022/08/03 10:28:19;;;;;;;3.00;1.80;;;30.30;99.90;;;;;;5120119;22;20209;-76
2022/08/03 10:30:49;;;;;;;3.25;1.70;;;30.30;99.90;;;;;;5066619;28;20252;-77
2022/08/03 10:33:20;;;;;;;1.60;1.50;;;30.40;99.90;;;;;;5069351;28;20284;-77
2022/08/03 10:35:56;;;;;;;1.77;1.67;;;30.40;99.90;;;;;;5072983;28;20206;-76
2022/08/03 10:38:29;;;;;;;1.55;1.40;;;30.50;99.90;;;;;;5068557;28;20218;-79
2022/08/03 10:40:57;;;;;;;1.45;1.35;;;30.50;99.90;;;;;;5068372;28;20194;-78
2022/08/03 10:43:28;;;;;;;1.90;1.80;;;30.40;99.90;;;;;;5066375;28;20218;-77
2022/08/03 10:45:56;;;;;;;1.63;1.52;;;30.70;99.90;;;;;;5067206;28;20201;-73
2022/08/03 10:48:25;;;;;;;2.08;1.70;;;30.90;99.90;;;;;;5068349;28;20229;-75
2022/08/03 10:50:53;;;;;;;1.63;1.50;;;31.00;99.90;;;;;;5062803;28;20566;-76
2022/08/03 10:53:35;;;;;;;2.25;1.60;;;30.80;99.90;;;;;;5070214;28;20221;-72
2022/08/03 10:58:52;;;;;;;1.65;1.40;;;30.80;99.90;;;;;;5068745;28;20299;-75
2022/08/03 11:01:40;;;;;;;1.88;1.70;;;30.90;99.90;;;;;;5070239;28;20587;-75
2022/08/03 11:04:18;;;;;;;1.50;1.38;;;31.20;99.90;;;;;;5065924;28;20222;-79
2022/08/03 11:06:48;;;;;;;1.70;1.40;;;31.10;99.90;;;;;;5067984;28;20223;-79
2022/08/03 11:09:18;;;;;;;1.70;1.60;;;31.20;99.90;;;;;;5068543;28;20218;-77
2022/08/03 11:11:48;;;;;;;2.33;1.52;;;31.10;99.90;;;;;;5068879;28;20253;-75
2022/08/03 11:14:18;;;;;;;1.48;1.38;;;31.10;99.90;;;;;;5065599;28;20205;-78
2022/08/03 11:16:47;;;;;;;1.63;1.50;;;31.20;99.90;;;;;;5066977;28;20202;-80
2022/08/03 11:19:16;;;;;;;1.40;1.30;;;31.10;99.90;;;;;;5069970;28;20210;-77
2022/08/03 11:21:56;;;;;;;1.42;1.33;;;31.10;99.90;;;;;;5066118;28;20656;-75
2022/08/03 11:24:57;;;;;;;1.60;1.50;;;31.20;99.90;;;;;;5064654;28;20194;-81
2022/08/03 11:27:26;;;;;;;1.50;1.40;;;31.20;99.90;;;;;;5065399;28;20233;-78
2022/08/03 11:29:58;;;;;;;1.42;1.33;;;31.50;99.90;;;;;;5065160;28;20222;-80
2022/08/03 11:33:00;;;;;;;1.50;1.40;;;31.50;99.90;;;;;;5067488;28;20222;-80
2022/08/03 11:35:29;;;;;;;1.60;1.50;;;31.50;99.90;;;;;;5063312;28;20202;-80
2022/08/03 11:38:23;;;;;;;1.65;1.55;;;31.40;99.90;;;;;;5068150;28;20220;-76
2022/08/03 11:40:52;;;;;;;1.80;1.50;;;31.30;99.90;;;;;;5064564;28;20222;-77
2022/08/03 11:43:45;;;;;;;1.23;1.10;;;31.30;99.90;;;;;;5068365;28;20229;-73
2022/08/03 11:46:17;;;;;;;1.60;1.50;;;31.40;99.90;;;;;;5067209;28;20290;-80
2022/08/03 11:48:47;;;;;;;1.60;1.50;;;31.60;99.90;;;;;;5066431;28;20226;-76
2022/08/03 11:51:22;;;;;;;1.65;1.55;;;31.70;99.90;;;;;;5067510;28;20194;-77
2022/08/03 11:53:54;;;;;;;1.40;1.30;;;31.90;99.90;;;;;;5067200;28;20251;-77
2022/08/03 11:56:21;;;;;;;1.35;1.25;;;31.80;99.90;;;;;;5062346;28;20202;-81
2022/08/03 11:58:52;;;;;;;1.73;1.33;;;31.70;99.90;;;;;;5067906;28;20226;-80
2022/08/03 12:01:21;;;;;;;1.50;1.40;;;31.50;99.90;;;;;;5068869;28;20289;-80
2022/08/03 12:03:49;;;;;;;1.95;1.55;;;31.40;99.90;;;;;;5066850;28;20715;-82
2022/08/03 12:06:17;;;;;;;1.83;1.40;;;31.60;99.90;;;;;;5066688;28;20221;-77
2022/08/03 12:08:45;;;;;;;1.60;1.50;;;31.80;99.90;;;;;;5066295;28;20225;-80
2022/08/03 12:11:15;;;;;;;1.50;1.40;;;32.10;99.90;;;;;;5068255;28;20657;-80
2022/08/03 12:13:45;;;;;;;2.45;1.23;;;32.30;99.90;;;;;;5065491;28;20218;-78
2022/08/03 12:16:18;;;;;;;1.60;1.50;;;32.50;99.90;;;;;;5060269;28;20195;-77
2022/08/03 12:18:45;;;;;;;1.95;1.40;;;32.60;99.90;;;;;;5064710;28;20236;-78
2022/08/03 12:21:13;;;;;;;1.40;1.30;;;32.60;99.90;;;;;;5067570;28;20660;-78
2022/08/03 12:23:40;;;;;;;1.70;1.60;;;32.60;99.90;;;;;;5067744;28;20241;-78
2022/08/03 12:26:08;;;;;;;1.30;1.20;;;32.60;99.90;;;;;;5068529;28;20198;-75
2022/08/03 12:28:37;;;;;;;1.38;1.20;;;32.60;99.90;;;;;;5064833;28;20236;-78
2022/08/03 12:31:06;;;;;;;1.85;1.40;;;32.60;99.90;;;;;;5066393;28;20224;-80
2022/08/03 12:33:54;;;;;;;1.38;1.27;;;32.60;99.90;;;;;;5069497;28;20218;-80
2022/08/03 12:36:21;;;;;;;1.23;1.13;;;32.60;99.90;;;;;;5066286;28;20247;-80
2022/08/03 12:38:55;;;;;;;2.53;1.77;;;32.60;99.90;;;;;;5067621;28;20222;-80
2022/08/03 12:41:29;;;;;;;1.98;1.60;;;32.90;99.90;;;;;;5064384;28;20603;-80
2022/08/03 12:43:57;;;;;;;1.50;1.38;;;32.90;99.90;;;;;;5065011;28;20225;-79
2022/08/03 12:46:33;;;;;;;1.20;1.20;;;33.00;99.90;;;;;;5067810;28;20191;-79
2022/08/03 12:49:06;;;;;;;1.63;1.40;;;33.20;99.90;;;;;;5064439;28;20270;-80
2022/08/03 12:51:34;;;;;;;1.40;1.30;;;33.00;99.90;;;;;;5066931;28;20190;-78
2022/08/03 12:54:05;;;;;;;1.55;1.45;;;33.00;99.90;;;;;;5067110;28;20226;-78
2022/08/03 12:56:32;;;;;;;3.92;1.40;;;33.00;99.90;;;;;;5066520;28;20194;-77
2022/08/03 12:59:00;;;;;;;1.27;1.17;;;32.90;99.90;;;;;;5065431;28;20218;-75
2022/08/03 13:01:37;;;;;;;2.03;1.33;;;32.90;99.90;;;;;;5063303;28;20672;-73
2022/08/03 13:04:05;;;;;;;1.70;1.60;;;32.90;99.90;;;;;;5061600;28;20984;-77
2022/08/03 13:06:32;;;;;;;1.40;1.30;;;33.00;99.90;;;;;;5065367;28;20676;-77
2022/08/03 13:09:07;;;;;;;1.40;1.30;;;33.10;99.90;;;;;;5066940;28;20650;-79